Time;durP1;ratioP1;P1;durP2;ratioP2;P2;SDS_P1;SDS_P2;PMS_P1;PMS_P2;Temp;Humidity;BMP_temperature;BMP_pressure;BME280_temperature;BME280_humidity;BME280_pressure;Samples;Min_cycle;Max_cycle;Signal;HPM_P1;HPM_P2
2022/12/19 00:01:29;;;;;;;47.15;18.90;;;;;;;-0.62;95.38;101649.31;5096156;28;20496;-57
2022/12/19 00:03:58;;;;;;;51.78;20.75;;;;;;;-0.37;95.12;101651.81;5097236;28;20127;-48
2022/12/19 00:06:27;;;;;;;45.30;19.40;;;;;;;-0.45;94.43;101646.91;5066583;28;20074;-56
2022/12/19 00:08:55;;;;;;;50.53;20.10;;;;;;;-0.46;95.10;101640.00;5096896;28;20040;-55
2022/12/19 00:11:23;;;;;;;50.75;19.55;;;;;;;-0.60;95.00;101640.56;5095605;28;20040;-48
2022/12/19 00:13:50;;;;;;;54.42;20.92;;;;;;;-0.57;94.94;101633.53;5096856;28;20036;-56
2022/12/19 00:16:19;;;;;;;57.47;22.25;;;;;;;-0.52;95.99;101632.44;5051178;28;20040;-56
2022/12/19 00:18:48;;;;;;;56.15;20.80;;;;;;;-0.62;95.78;101644.09;5096773;28;20447;-58
2022/12/19 00:21:17;;;;;;;53.35;21.92;;;;;;;-0.41;94.84;101645.03;5096911;28;20040;-56
2022/12/19 00:23:45;;;;;;;54.53;21.88;;;;;;;-0.33;96.02;101637.75;5096772;28;20047;-58
2022/12/19 00:26:16;;;;;;;64.13;22.33;;;;;;;-0.33;95.32;101640.34;5097003;28;20488;-55
2022/12/19 00:28:49;;;;;;;58.00;22.48;;;;;;;-0.44;96.26;101639.94;5096719;28;20040;-55
2022/12/19 00:31:18;;;;;;;64.00;22.38;;;;;;;-0.34;94.80;101632.59;5096841;28;20048;-56
2022/12/19 00:33:46;;;;;;;58.55;22.10;;;;;;;-0.29;95.16;101634.13;5096519;28;20044;-56
2022/12/19 00:36:16;;;;;;;67.20;24.20;;;;;;;-0.23;95.37;101628.63;5095100;28;20054;-56
2022/12/19 00:38:43;;;;;;;65.03;24.73;;;;;;;-0.25;95.74;101616.59;5096461;28;20062;-56
2022/12/19 00:41:14;;;;;;;60.80;23.13;;;;;;;-0.37;95.24;101597.06;5096616;28;20052;-56
2022/12/19 00:43:42;;;;;;;73.15;25.63;;;;;;;-0.32;95.91;101589.06;5096420;28;20079;-55
2022/12/19 00:46:12;;;;;;;74.82;26.00;;;;;;;-0.20;96.05;101604.19;5096265;28;20405;-56
2022/12/19 00:48:39;;;;;;;71.95;24.20;;;;;;;-0.24;96.08;101594.78;5096482;28;20047;-56
2022/12/19 00:51:10;;;;;;;77.28;27.20;;;;;;;-0.23;95.80;101620.81;5096056;28;20135;-55
2022/12/19 00:53:42;;;;;;;68.93;24.35;;;;;;;-0.28;96.28;101621.91;5096341;28;20044;-56
2022/12/19 00:56:12;;;;;;;83.63;26.50;;;;;;;-0.21;95.40;101626.81;5096093;28;20039;-56
2022/12/19 00:58:40;;;;;;;91.10;28.30;;;;;;;-0.16;95.84;101608.38;5096380;28;20093;-56
2022/12/19 01:01:14;;;;;;;97.60;29.20;;;;;;;-0.21;96.22;101605.94;5094641;28;20044;-56
2022/12/19 01:03:41;;;;;;;101.30;31.83;;;;;;;-0.11;96.08;101602.97;5094999;28;20043;-56
2022/12/19 01:06:15;;;;;;;90.78;28.77;;;;;;;-0.21;96.02;101592.06;5095502;28;20054;-56
2022/12/19 01:08:42;;;;;;;107.93;34.17;;;;;;;-0.21;96.31;101597.28;5095556;28;20392;-55
2022/12/19 01:11:09;;;;;;;101.95;32.10;;;;;;;-0.22;97.35;101598.19;5095656;28;20123;-56
2022/12/19 01:13:38;;;;;;;108.93;32.15;;;;;;;-0.20;97.28;101585.94;5095602;28;20443;-54
2022/12/19 01:16:10;;;;;;;112.45;31.73;;;;;;;-0.10;96.66;101570.75;5095977;28;20400;-56
2022/12/19 01:18:37;;;;;;;104.97;31.88;;;;;;;-0.08;96.59;101582.81;5095824;28;20678;-57
2022/12/19 01:21:07;;;;;;;125.70;34.55;;;;;;;-0.16;97.00;101558.81;5096029;28;20048;-55
2022/12/19 01:23:35;;;;;;;118.40;33.65;;;;;;;-0.26;97.68;101550.53;5095612;28;20119;-56
2022/12/19 01:26:02;;;;;;;123.82;33.70;;;;;;;-0.08;97.21;101571.53;5095799;28;20052;-56
2022/12/19 01:28:29;;;;;;;127.75;34.28;;;;;;;-0.11;97.23;101567.31;5095806;28;20485;-56
2022/12/19 01:30:57;;;;;;;124.10;34.17;;;;;;;-0.15;97.52;101570.09;5095553;28;20052;-56
2022/12/19 01:33:24;;;;;;;119.88;34.35;;;;;;;-0.13;97.70;101563.91;5095484;28;20055;-56
2022/12/19 01:35:52;;;;;;;129.80;35.40;;;;;;;0.03;97.81;101551.06;5093753;28;20075;-56
2022/12/19 01:38:20;;;;;;;117.90;36.00;;;;;;;-0.14;98.13;101571.81;5093921;28;20036;-56
2022/12/19 01:40:50;;;;;;;131.60;34.70;;;;;;;-0.10;98.78;101562.94;5095614;28;20052;-58
2022/12/19 01:43:19;;;;;;;124.60;35.90;;;;;;;-0.04;98.60;101544.41;5095333;28;20040;-55
2022/12/19 01:45:54;;;;;;;136.52;37.03;;;;;;;0.11;98.25;101548.09;5095479;28;20044;-55
2022/12/19 01:48:32;;;;;;;121.38;35.85;;;;;;;0.11;98.37;101535.06;5095137;28;20062;-55
2022/12/19 01:51:03;;;;;;;136.07;35.40;;;;;;;0.08;98.02;101528.22;5095420;28;20097;-55
2022/12/19 01:53:35;;;;;;;134.48;34.13;;;;;;;-0.05;98.66;101529.69;5094738;28;20119;-56
2022/12/19 01:56:06;;;;;;;125.93;35.60;;;;;;;0.10;99.09;101520.31;5095516;28;20141;-56
2022/12/19 01:58:35;;;;;;;155.02;38.28;;;;;;;0.08;99.20;101514.34;5094747;28;20041;-57
2022/12/19 02:01:02;;;;;;;126.10;33.20;;;;;;;0.16;99.75;101515.69;5095341;28;20048;-55
2022/12/19 02:03:32;;;;;;;130.15;34.00;;;;;;;0.05;99.83;101504.88;5094824;28;20127;-55
2022/12/19 02:06:00;;;;;;;139.80;34.75;;;;;;;0.12;99.42;101495.00;5094630;28;20044;-57
2022/12/19 02:08:27;;;;;;;127.55;35.60;;;;;;;0.20;99.89;101498.16;5094558;28;20040;-55
2022/12/19 02:10:54;;;;;;;117.03;32.30;;;;;;;0.18;99.89;101493.00;5094356;28;20036;-56
2022/12/19 02:13:22;;;;;;;135.10;34.42;;;;;;;0.25;99.18;101477.03;5094807;28;20493;-55
2022/12/19 02:21:24;;;;;;;112.03;33.20;;;;;;;0.22;100.00;101477.16;5090509;27;20348;-57
2022/12/19 02:24:19;;;;;;;94.90;28.88;;;;;;;0.26;99.58;101470.91;5090763;28;20098;-55
2022/12/19 02:27:12;;;;;;;104.45;31.58;;;;;;;0.31;99.75;101466.31;5090489;28;20043;-57
2022/12/19 02:30:19;;;;;;;98.35;27.98;;;;;;;0.37;99.57;101458.22;5090475;28;20064;-55
2022/12/19 02:33:07;;;;;;;74.25;25.20;;;;;;;0.48;99.57;101447.28;5090672;28;20131;-54
2022/12/19 02:35:56;;;;;;;78.93;26.33;;;;;;;0.35;99.83;101447.00;5090647;28;20451;-55
2022/12/19 02:38:48;;;;;;;75.45;25.50;;;;;;;0.42;99.50;101426.66;5090203;28;20066;-55
2022/12/19 02:41:42;;;;;;;66.22;25.58;;;;;;;0.54;99.25;101428.72;5072448;28;20052;-55
2022/12/19 02:44:22;;;;;;;57.97;20.50;;;;;;;0.62;99.31;101408.31;5090378;28;20044;-57
2022/12/19 02:46:51;;;;;;;50.70;20.35;;;;;;;0.68;98.63;101402.78;5090322;28;20048;-56
2022/12/19 02:49:20;;;;;;;58.72;22.08;;;;;;;0.60;98.26;101407.53;5090637;28;20036;-57
2022/12/19 02:51:47;;;;;;;52.35;20.00;;;;;;;0.61;98.37;101405.78;5090276;28;20044;-57
2022/12/19 02:54:14;;;;;;;48.67;20.98;;;;;;;0.65;98.60;101413.38;5090152;28;20044;-57
2022/12/19 02:56:51;;;;;;;50.85;20.35;;;;;;;0.64;98.24;101405.59;5089920;28;20051;-57
2022/12/19 02:59:43;;;;;;;46.10;20.33;;;;;;;0.62;98.63;101421.38;5090378;28;20036;-57
2022/12/19 03:02:41;;;;;;;47.50;20.80;;;;;;;0.70;98.49;101411.38;5089724;28;20070;-57
2022/12/19 03:08:17;;;;;;;38.67;16.98;;;;;;;0.80;96.97;101429.22;5110591;27;20379;-55
2022/12/19 03:10:51;;;;;;;48.75;19.20;;;;;;;0.81;96.40;101425.69;5111305;28;20489;-55
2022/12/19 03:13:34;;;;;;;36.50;15.90;;;;;;;0.81;96.65;101423.94;5111140;28;20101;-52
2022/12/19 03:16:03;;;;;;;40.78;17.92;;;;;;;0.76;96.65;101429.38;5111186;28;20378;-55
2022/12/19 03:18:32;;;;;;;44.80;17.98;;;;;;;0.81;96.89;101439.59;5110910;28;20051;-55
2022/12/19 03:21:22;;;;;;;41.30;18.83;;;;;;;0.64;96.58;101440.41;5111215;28;20139;-55
2022/12/19 03:23:51;;;;;;;45.50;19.92;;;;;;;0.82;96.25;101425.63;5110385;28;20047;-56
2022/12/19 03:26:20;;;;;;;47.25;20.30;;;;;;;0.88;96.76;101427.09;5111134;28;20061;-55
2022/12/19 03:31:46;;;;;;;52.20;19.92;;;;;;;0.83;96.67;101423.84;5131471;27;20136;-55
2022/12/19 03:34:28;;;;;;;49.65;19.73;;;;;;;0.80;97.27;101424.00;5102887;28;20040;-57
2022/12/19 03:37:00;;;;;;;50.45;20.65;;;;;;;0.80;97.58;101418.78;5090897;28;20098;-55
2022/12/19 03:39:27;;;;;;;;;;;;;;;0.85;97.44;101416.78;5091084;28;20493;-55
2022/12/19 03:44:44;;;;;;;51.55;21.48;;;;;;;0.93;96.09;101405.03;5090638;28;20046;-57
2022/12/19 03:47:18;;;;;;;55.97;22.48;;;;;;;0.95;96.39;101400.59;5072356;28;20062;-54
2022/12/19 03:49:46;;;;;;;55.60;22.95;;;;;;;0.89;96.74;101392.19;5072418;28;20032;-55
2022/12/19 03:52:38;;;;;;;59.05;24.33;;;;;;;0.82;96.61;101391.69;5090192;28;20490;-55
2022/12/19 03:55:20;;;;;;;57.58;22.55;;;;;;;0.83;98.31;101395.13;5090301;28;20036;-55
2022/12/19 03:57:58;;;;;;;67.25;25.88;;;;;;;0.80;98.54;101393.53;5090478;28;20052;-55
2022/12/19 04:00:26;;;;;;;67.65;26.10;;;;;;;0.81;99.91;101384.75;5090531;28;20501;-55
2022/12/19 04:02:56;;;;;;;68.63;25.67;;;;;;;0.73;100.00;101384.28;5072689;28;20493;-55
2022/12/19 04:05:25;;;;;;;77.30;26.77;;;;;;;0.75;100.00;101382.44;5089881;28;20050;-55
2022/12/19 04:07:55;;;;;;;70.32;25.98;;;;;;;0.82;100.00;101380.34;5089803;28;20101;-55
2022/12/19 04:10:25;;;;;;;74.75;27.10;;;;;;;0.77;100.00;101367.53;5089619;28;20048;-55
2022/12/19 04:13:01;;;;;;;72.75;28.98;;;;;;;0.69;100.00;101373.16;5090254;28;20055;-55
2022/12/19 04:15:38;;;;;;;77.10;27.80;;;;;;;0.76;100.00;101371.94;5089966;28;20082;-55
2022/12/19 04:18:08;;;;;;;82.72;27.88;;;;;;;0.97;100.00;101374.38;5090211;28;20052;-55
2022/12/19 04:20:39;;;;;;;81.95;28.05;;;;;;;0.94;100.00;101371.91;5089968;28;20401;-56
2022/12/19 04:23:14;;;;;;;98.57;32.10;;;;;;;0.95;100.00;101371.00;5089986;28;20068;-55
2022/12/19 04:25:46;;;;;;;86.50;31.13;;;;;;;0.86;100.00;101376.69;5089912;28;20044;-50
2022/12/19 04:28:34;;;;;;;97.40;32.13;;;;;;;0.96;100.00;101362.22;5071977;28;20067;-55
2022/12/19 04:31:01;;;;;;;86.78;31.17;;;;;;;0.85;100.00;101375.81;5077064;28;20055;-55
2022/12/19 04:33:28;;;;;;;94.68;32.58;;;;;;;0.92;100.00;101371.16;5069090;28;20056;-55
2022/12/19 04:35:56;;;;;;;97.72;32.38;;;;;;;0.92;100.00;101368.53;5069421;28;20498;-56
2022/12/19 04:38:23;;;;;;;98.15;31.33;;;;;;;0.97;100.00;101382.22;5068944;28;20040;-56
2022/12/19 04:40:50;;;;;;;104.30;33.30;;;;;;;1.11;100.00;101389.34;5069309;28;20048;-56
2022/12/19 04:43:16;;;;;;;97.82;34.00;;;;;;;1.01;100.00;101385.53;5055463;28;20049;-56
2022/12/19 04:45:43;;;;;;;100.78;32.30;;;;;;;1.13;100.00;101380.53;5055881;28;20490;-56
2022/12/19 04:48:10;;;;;;;106.93;33.13;;;;;;;1.06;100.00;101384.38;5056199;28;20076;-56
2022/12/19 04:50:36;;;;;;;109.88;32.42;;;;;;;1.11;100.00;101382.38;5055723;28;20513;-55
2022/12/19 04:53:03;;;;;;;113.40;35.17;;;;;;;1.02;100.00;101382.84;5055881;28;20049;-56
2022/12/19 04:55:30;;;;;;;110.05;32.20;;;;;;;1.05;100.00;101377.44;5055573;28;20048;-55
2022/12/19 04:57:57;;;;;;;130.38;35.85;;;;;;;1.02;100.00;101382.84;5055889;28;20049;-56
2022/12/19 05:00:24;;;;;;;102.70;34.97;;;;;;;1.21;100.00;101376.69;5055861;28;20063;-56
2022/12/19 05:02:50;;;;;;;106.80;34.08;;;;;;;1.00;100.00;101363.78;5055416;28;20036;-56
2022/12/19 05:05:17;;;;;;;114.18;34.55;;;;;;;1.16;100.00;101384.75;5055559;28;20073;-56
2022/12/19 05:07:45;;;;;;;105.32;33.75;;;;;;;1.21;100.00;101381.91;5054800;28;20053;-56
2022/12/19 05:10:12;;;;;;;116.00;35.90;;;;;;;1.09;100.00;101367.69;5055755;28;20128;-56
2022/12/19 05:12:39;;;;;;;111.93;34.08;;;;;;;1.07;100.00;101370.38;5055267;28;20520;-56
2022/12/19 05:15:06;;;;;;;109.70;33.08;;;;;;;1.12;100.00;101355.31;5055607;28;20098;-56
2022/12/19 05:17:33;;;;;;;125.20;36.35;;;;;;;1.21;100.00;101350.56;5054822;28;20517;-55
2022/12/19 05:19:59;;;;;;;121.82;35.08;;;;;;;1.22;100.00;101355.72;5055226;28;20060;-56
2022/12/19 05:22:26;;;;;;;129.43;35.55;;;;;;;1.13;100.00;101353.56;5037491;28;20052;-56
2022/12/19 05:24:53;;;;;;;121.70;34.42;;;;;;;1.19;100.00;101352.41;5054813;28;20064;-56
2022/12/19 05:27:19;;;;;;;113.60;36.70;;;;;;;1.17;100.00;101355.09;5037589;28;20494;-55
2022/12/19 05:29:46;;;;;;;117.88;35.13;;;;;;;1.25;100.00;101349.47;5054906;28;20099;-56
2022/12/19 05:32:13;;;;;;;121.60;35.10;;;;;;;1.22;100.00;101363.53;5054855;28;20478;-56
2022/12/19 05:34:39;;;;;;;106.47;34.38;;;;;;;1.20;100.00;101359.31;5055026;28;20120;-56
2022/12/19 05:37:07;;;;;;;121.25;34.38;;;;;;;1.22;100.00;101355.72;5055070;28;20053;-55
2022/12/19 05:39:34;;;;;;;109.55;31.80;;;;;;;1.29;100.00;101362.31;5054695;28;20040;-56
2022/12/19 05:42:00;;;;;;;111.78;34.22;;;;;;;1.36;100.00;101370.66;5054979;28;20106;-56
2022/12/19 05:44:27;;;;;;;100.03;33.05;;;;;;;1.35;100.00;101353.31;5054912;28;20051;-55
2022/12/19 05:46:53;;;;;;;95.88;31.98;;;;;;;1.33;100.00;101371.69;5054819;28;20045;-56
2022/12/19 05:49:20;;;;;;;107.22;31.73;;;;;;;1.43;100.00;101369.41;5054614;28;20045;-57
2022/12/19 05:51:47;;;;;;;89.35;32.80;;;;;;;1.39;100.00;101369.69;5036939;28;20045;-55
2022/12/19 05:54:13;;;;;;;87.88;30.02;;;;;;;1.46;100.00;101377.13;5053579;28;20136;-55
2022/12/19 05:56:40;;;;;;;87.82;29.50;;;;;;;1.47;100.00;101370.09;5054745;28;20044;-55
2022/12/19 05:59:07;;;;;;;77.60;26.98;;;;;;;1.53;100.00;101373.25;5054252;28;20041;-54
2022/12/19 06:01:34;;;;;;;85.10;27.60;;;;;;;1.49;100.00;101368.25;5054448;28;20552;-57
2022/12/19 06:04:01;;;;;;;72.88;26.52;;;;;;;1.46;100.00;101369.28;5054196;28;20037;-56
2022/12/19 06:06:27;;;;;;;75.00;27.08;;;;;;;1.42;100.00;101361.66;5054121;28;20049;-55
2022/12/19 06:08:57;;;;;;;68.95;25.58;;;;;;;1.50;100.00;101362.13;5054081;28;20483;-55
2022/12/19 06:11:25;;;;;;;72.45;25.23;;;;;;;1.51;100.00;101362.03;5054404;28;20052;-55
2022/12/19 06:13:52;;;;;;;62.47;24.67;;;;;;;1.53;100.00;101360.19;5054059;28;20041;-55
2022/12/19 06:16:20;;;;;;;69.13;27.50;;;;;;;1.58;100.00;101359.91;5053924;28;20086;-55
2022/12/19 06:18:47;;;;;;;66.22;25.05;;;;;;;1.66;100.00;101356.94;5054596;28;20056;-55
2022/12/19 06:21:16;;;;;;;55.83;23.85;;;;;;;1.65;100.00;101355.22;5053550;28;20406;-56
2022/12/19 06:23:44;;;;;;;61.88;24.25;;;;;;;1.75;100.00;101353.81;5054158;28;20119;-56
2022/12/19 06:26:13;;;;;;;66.10;24.73;;;;;;;1.82;100.00;101354.31;5036015;28;20482;-53
2022/12/19 06:28:44;;;;;;;58.35;23.02;;;;;;;1.72;100.00;101348.75;5054098;28;20056;-56
2022/12/19 06:31:11;;;;;;;54.50;22.08;;;;;;;1.83;100.00;101353.41;5053496;28;20053;-56
2022/12/19 06:33:38;;;;;;;53.20;22.55;;;;;;;1.91;100.00;101351.19;5053826;28;20068;-55
2022/12/19 06:36:11;;;;;;;60.97;25.90;;;;;;;1.84;100.00;101360.34;5053912;28;20049;-58
2022/12/19 06:38:38;;;;;;;57.92;23.00;;;;;;;1.92;100.00;101360.75;5036573;28;20128;-55
2022/12/19 06:43:52;;;;;;;57.00;23.83;;;;;;;2.02;100.00;101361.09;5053322;28;20064;-56
2022/12/19 06:46:19;;;;;;;60.10;24.27;;;;;;;2.13;100.00;101363.13;5053641;28;20045;-58
2022/12/19 06:48:46;;;;;;;55.38;22.88;;;;;;;2.10;100.00;101362.34;5053853;28;20408;-56
2022/12/19 06:51:13;;;;;;;61.95;24.80;;;;;;;2.20;100.00;101364.47;5053413;28;20044;-56
2022/12/19 06:53:39;;;;;;;56.80;23.63;;;;;;;2.10;100.00;101364.97;5053394;28;20083;-57
2022/12/19 06:56:07;;;;;;;51.67;22.65;;;;;;;2.10;100.00;101353.66;5053402;28;20049;-54
2022/12/19 06:58:33;;;;;;;62.05;23.90;;;;;;;2.10;100.00;101359.75;5053501;28;20049;-56
2022/12/19 07:01:00;;;;;;;55.20;23.40;;;;;;;2.19;100.00;101357.56;5053412;28;20094;-55
2022/12/19 07:03:35;;;;;;;53.90;23.67;;;;;;;2.19;100.00;101362.78;5053307;28;20052;-55
2022/12/19 07:06:02;;;;;;;58.78;23.83;;;;;;;2.30;100.00;101348.16;5052582;28;20045;-56
2022/12/19 07:08:30;;;;;;;58.65;23.70;;;;;;;2.30;100.00;101356.03;5023164;28;20053;-56
2022/12/19 07:10:57;;;;;;;60.85;25.13;;;;;;;2.33;100.00;101359.41;5047885;28;20115;-56
2022/12/19 07:13:24;;;;;;;57.60;23.83;;;;;;;2.36;100.00;101351.38;5051374;28;20055;-55
2022/12/19 07:15:53;;;;;;;56.92;25.27;;;;;;;2.26;100.00;101341.41;5053600;28;20089;-57
2022/12/19 07:18:19;;;;;;;65.55;25.73;;;;;;;2.29;100.00;101354.34;5053092;28;20049;-57
2022/12/19 07:20:46;;;;;;;68.05;25.42;;;;;;;2.27;100.00;101345.75;5053568;28;20065;-56
2022/12/19 07:23:17;;;;;;;69.68;26.08;;;;;;;2.39;100.00;101357.28;5034995;28;20540;-58
2022/12/19 07:25:44;;;;;;;66.40;25.95;;;;;;;2.36;100.00;101365.31;5053342;28;20051;-56
2022/12/19 07:28:12;;;;;;;62.60;24.80;;;;;;;2.46;100.00;101363.88;5051672;28;20052;-56
2022/12/19 07:30:38;;;;;;;67.90;25.23;;;;;;;2.44;100.00;101357.03;5051688;28;20055;-56
2022/12/19 07:33:05;;;;;;;73.05;25.83;;;;;;;2.47;100.00;101362.09;5052908;28;20059;-56
2022/12/19 07:35:35;;;;;;;71.05;27.13;;;;;;;2.47;100.00;101368.19;5035961;28;20045;-56
2022/12/19 07:38:05;;;;;;;68.03;28.15;;;;;;;2.55;100.00;101364.25;5053183;28;20048;-56
2022/12/19 07:40:33;;;;;;;67.10;26.33;;;;;;;2.59;100.00;101369.25;5035729;28;20045;-56
2022/12/19 07:43:02;;;;;;;78.53;27.13;;;;;;;2.60;100.00;101370.09;5053181;28;20049;-56
2022/12/19 07:45:30;;;;;;;68.30;26.05;;;;;;;2.59;100.00;101371.03;5053023;28;20493;-56
2022/12/19 07:48:01;;;;;;;74.88;27.45;;;;;;;2.60;100.00;101364.84;5052714;28;20037;-57
2022/12/19 07:50:29;;;;;;;74.70;28.45;;;;;;;2.55;100.00;101362.50;5053021;28;20051;-57
2022/12/19 07:52:57;;;;;;;65.28;25.90;;;;;;;2.68;100.00;101360.03;5052671;28;20056;-57
2022/12/19 07:55:25;;;;;;;72.47;27.42;;;;;;;2.75;100.00;101361.38;5052664;28;20044;-57
2022/12/19 07:57:52;;;;;;;71.25;29.05;;;;;;;2.59;100.00;101361.41;5052856;28;20057;-57
2022/12/19 08:00:20;;;;;;;69.75;28.67;;;;;;;2.66;100.00;101367.16;5035147;28;20055;-57
2022/12/19 08:02:47;;;;;;;75.13;28.38;;;;;;;2.64;100.00;101364.59;5052917;28;20048;-57
2022/12/19 08:05:13;;;;;;;77.22;28.65;;;;;;;2.66;100.00;101369.75;5052516;28;20055;-57
2022/12/19 08:07:40;;;;;;;76.50;27.73;;;;;;;2.74;100.00;101369.31;5052451;28;20047;-56
2022/12/19 08:10:07;;;;;;;72.40;28.00;;;;;;;2.76;100.00;101367.44;5052071;28;20037;-57
2022/12/19 08:12:34;;;;;;;75.00;28.73;;;;;;;2.80;100.00;101368.94;5052770;28;20076;-57
2022/12/19 08:15:01;;;;;;;67.72;28.00;;;;;;;2.74;100.00;101366.69;5052525;28;20049;-57
2022/12/19 08:17:27;;;;;;;76.55;28.55;;;;;;;2.78;100.00;101369.03;5054853;28;20132;-57
2022/12/19 08:19:54;;;;;;;76.63;28.42;;;;;;;2.87;100.00;101371.16;5056440;28;20601;-57
2022/12/19 08:22:21;;;;;;;73.78;27.80;;;;;;;2.91;100.00;101363.09;5056306;28;20041;-57
2022/12/19 08:24:49;;;;;;;75.30;28.48;;;;;;;2.88;100.00;101367.59;5056353;28;20057;-57
2022/12/19 08:27:16;;;;;;;79.00;29.08;;;;;;;2.85;100.00;101373.00;5056164;28;20123;-57
2022/12/19 08:29:43;;;;;;;80.47;27.88;;;;;;;2.94;100.00;101376.03;5058765;28;20036;-56
2022/12/19 08:32:09;;;;;;;81.88;28.95;;;;;;;2.97;100.00;101374.06;5056842;28;20045;-56
2022/12/19 08:34:39;;;;;;;82.32;30.00;;;;;;;2.99;100.00;101379.22;5056532;28;20053;-57
2022/12/19 08:37:06;;;;;;;74.93;28.90;;;;;;;3.05;100.00;101387.56;5057492;28;20383;-56
2022/12/19 08:39:33;;;;;;;81.95;29.05;;;;;;;3.08;100.00;101376.06;5039543;28;20041;-57
2022/12/19 08:42:01;;;;;;;80.15;28.70;;;;;;;3.01;100.00;101374.75;5045936;28;20076;-57
2022/12/19 08:44:28;;;;;;;76.28;28.35;;;;;;;3.07;100.00;101377.84;5045335;28;20047;-57
2022/12/19 08:46:54;;;;;;;75.80;28.60;;;;;;;3.07;100.00;101374.38;5058745;28;20367;-57
2022/12/19 08:49:21;;;;;;;75.40;29.13;;;;;;;3.04;100.00;101382.44;5050480;28;20452;-57
2022/12/19 08:51:48;;;;;;;85.30;30.50;;;;;;;2.97;100.00;101373.25;5070481;28;20037;-57
2022/12/19 08:54:15;;;;;;;77.82;28.27;;;;;;;3.08;100.00;101363.78;5056147;28;20087;-56
2022/12/19 08:56:41;;;;;;;84.38;28.23;;;;;;;3.14;100.00;101367.84;5063040;28;20055;-57
2022/12/19 08:59:08;;;;;;;78.03;28.92;;;;;;;3.11;100.00;101372.41;5042473;28;20076;-51
2022/12/19 09:01:35;;;;;;;79.82;29.80;;;;;;;3.15;100.00;101376.56;5063215;28;20136;-51
2022/12/19 09:04:01;;;;;;;75.82;28.67;;;;;;;3.21;100.00;101371.78;5061541;28;20106;-50
2022/12/19 09:06:28;;;;;;;81.75;28.95;;;;;;;3.17;100.00;101358.97;5054268;28;20053;-50
2022/12/19 09:08:55;;;;;;;75.70;30.13;;;;;;;3.22;100.00;101368.25;5035575;28;20804;-52
2022/12/19 09:11:21;;;;;;;68.15;27.95;;;;;;;3.25;100.00;101368.03;5056202;28;20649;-50
2022/12/19 09:13:49;;;;;;;71.72;29.02;;;;;;;3.21;100.00;101369.16;5050722;28;20074;-49
2022/12/19 09:16:19;;;;;;;70.30;29.30;;;;;;;3.29;100.00;101370.47;5041783;28;20098;-49
2022/12/19 09:18:49;;;;;;;84.80;30.27;;;;;;;3.26;100.00;101364.50;5062979;28;20047;-51
2022/12/19 09:21:17;;;;;;;78.25;28.25;;;;;;;3.30;100.00;101362.53;5062436;28;20887;-48
2022/12/19 09:23:53;;;;;;;71.72;28.25;;;;;;;3.25;100.00;101361.94;5025934;28;20053;-49
2022/12/19 09:26:23;;;;;;;67.43;27.40;;;;;;;3.45;100.00;101372.09;5058245;28;20048;-50
2022/12/19 09:28:50;;;;;;;75.38;28.38;;;;;;;3.46;100.00;101368.53;5060447;28;20490;-50
2022/12/19 09:31:20;;;;;;;74.40;29.90;;;;;;;3.47;100.00;101369.38;5051387;28;20048;-49
2022/12/19 09:33:47;;;;;;;74.40;27.13;;;;;;;3.49;100.00;101367.50;5051230;28;20041;-49
2022/12/19 09:36:17;;;;;;;74.13;28.23;;;;;;;3.56;100.00;101365.34;5036812;28;20040;-51
2022/12/19 09:38:44;;;;;;;64.53;26.92;;;;;;;3.70;100.00;101360.09;5057274;28;20440;-48
2022/12/19 09:41:46;;;;;;;73.97;28.17;;;;;;;3.77;100.00;101376.34;5034710;28;20036;-51
2022/12/19 09:44:28;;;;;;;64.95;25.52;;;;;;;3.68;100.00;101377.72;5050972;28;20044;-49
2022/12/19 09:46:58;;;;;;;63.83;25.02;;;;;;;3.80;100.00;101378.75;5059353;28;20065;-50
2022/12/19 09:49:28;;;;;;;72.97;26.90;;;;;;;3.84;100.00;101393.38;5061499;28;20048;-51
2022/12/19 09:52:16;;;;;;;61.65;25.98;;;;;;;3.81;100.00;101394.41;5045051;28;20028;-52
2022/12/19 09:55:10;;;;;;;60.70;25.38;;;;;;;3.88;100.00;101389.63;5027989;28;20052;-49
2022/12/19 10:00:36;;;;;;;70.93;28.45;;;;;;;3.88;100.00;101389.63;5081738;27;20404;-49
2022/12/19 10:03:19;;;;;;;66.78;24.88;;;;;;;3.92;100.00;101387.66;5099117;28;20047;-48
2022/12/19 10:05:51;;;;;;;64.43;26.02;;;;;;;3.93;100.00;101398.06;5114118;28;20082;-50
2022/12/19 10:08:24;;;;;;;65.68;24.88;;;;;;;3.99;100.00;101402.09;5079684;28;20052;-48
2022/12/19 10:13:59;;;;;;;59.28;24.90;;;;;;;3.99;100.00;101399.47;5067787;28;20384;-48
2022/12/19 10:20:19;;;;;;;56.50;23.02;;;;;;;4.10;100.00;101399.63;5099538;27;20535;-52
2022/12/19 10:23:09;;;;;;;57.45;23.23;;;;;;;4.15;100.00;101391.47;5103196;28;20036;-51
2022/12/19 10:26:05;;;;;;;53.00;22.95;;;;;;;4.15;100.00;101389.69;5065527;28;20542;-49
2022/12/19 10:29:02;;;;;;;54.30;22.42;;;;;;;4.17;100.00;101397.47;5082215;28;20036;-51
2022/12/19 10:31:53;;;;;;;53.65;22.02;;;;;;;4.25;100.00;101394.34;5069544;28;20092;-53
2022/12/19 10:34:27;;;;;;;45.28;22.20;;;;;;;4.20;100.00;101381.50;5103052;28;20056;-50
2022/12/19 10:37:00;;;;;;;55.22;22.95;;;;;;;4.01;100.00;101377.41;5041286;28;20062;-53
2022/12/19 10:40:10;;;;;;;45.78;21.58;;;;;;;4.11;100.00;101371.59;5077617;28;20314;-50
2022/12/19 10:43:01;;;;;;;50.97;22.17;;;;;;;4.01;100.00;101373.97;5086383;28;20857;-49
2022/12/19 10:45:36;;;;;;;55.10;23.05;;;;;;;4.08;100.00;101366.53;5083985;28;20406;-51
2022/12/19 10:48:05;;;;;;;55.33;21.58;;;;;;;4.14;100.00;101355.66;5100542;28;20046;-52
2022/12/19 10:50:33;;;;;;;48.25;21.10;;;;;;;4.21;100.00;101367.44;5101159;28;20033;-49
2022/12/19 10:55:46;;;;;;;44.65;21.20;;;;;;;4.16;100.00;101361.63;5086245;27;20397;-52
2022/12/19 10:58:26;;;;;;;50.63;22.13;;;;;;;4.21;100.00;101356.94;5085087;28;20036;-50
2022/12/19 11:03:31;;;;;;;47.42;20.58;;;;;;;4.33;100.00;101368.44;5057044;28;20423;-51
2022/12/19 11:05:58;;;;;;;45.05;19.25;;;;;;;4.39;100.00;101362.81;5033817;28;20036;-52
2022/12/19 11:08:30;;;;;;;44.15;21.25;;;;;;;4.31;100.00;101352.81;5038616;28;20057;-51
2022/12/19 11:13:46;;;;;;;45.22;20.77;;;;;;;4.21;100.00;101370.06;5059129;28;20376;-52
2022/12/19 11:16:22;;;;;;;51.17;20.33;;;;;;;4.23;100.00;101360.31;5049063;28;20124;-50
2022/12/19 11:18:48;;;;;;;49.72;21.25;;;;;;;4.31;100.00;101363.31;5036637;28;20048;-52
2022/12/19 11:21:20;;;;;;;45.97;20.90;;;;;;;4.27;100.00;101342.56;5024755;28;20193;-50
2022/12/19 11:24:11;;;;;;;46.22;20.45;;;;;;;4.42;100.00;101338.94;5033593;28;20090;-53
2022/12/19 11:26:43;;;;;;;46.00;20.63;;;;;;;4.42;100.00;101339.81;5040563;28;20080;-51
2022/12/19 11:29:48;;;;;;;45.53;21.08;;;;;;;4.43;100.00;101335.38;5058407;28;20534;-52
2022/12/19 11:32:39;;;;;;;50.63;20.67;;;;;;;4.51;100.00;101341.00;5051059;28;20025;-50
2022/12/19 11:35:25;;;;;;;47.30;20.50;;;;;;;4.53;100.00;101340.88;5053114;28;20098;-51
2022/12/19 11:37:57;;;;;;;43.20;19.63;;;;;;;4.56;100.00;101338.06;5054400;28;20060;-50
2022/12/19 11:40:47;;;;;;;44.10;20.88;;;;;;;4.60;100.00;101345.66;5050379;28;20094;-54
2022/12/19 11:43:54;;;;;;;43.63;19.33;;;;;;;4.61;100.00;101341.22;5022354;28;20044;-54
2022/12/19 11:46:37;;;;;;;45.33;20.02;;;;;;;4.57;100.00;101345.84;5054836;28;20049;-50
2022/12/19 11:49:35;;;;;;;49.35;20.48;;;;;;;4.68;100.00;101349.56;5038533;28;20120;-54
2022/12/19 11:52:16;;;;;;;44.53;19.88;;;;;;;4.69;100.00;101349.44;5053761;28;20061;-50
2022/12/19 11:55:13;;;;;;;47.17;19.98;;;;;;;4.74;100.00;101349.16;5050147;28;20049;-49
2022/12/19 11:57:41;;;;;;;45.53;20.83;;;;;;;4.72;100.00;101349.25;5043370;28;20048;-55
2022/12/19 12:00:16;;;;;;;44.35;20.23;;;;;;;4.72;100.00;101348.41;5042779;28;20053;-56
2022/12/19 12:03:01;;;;;;;46.85;21.00;;;;;;;4.68;100.00;101345.13;5031817;28;20032;-55
2022/12/19 12:05:45;;;;;;;42.97;21.83;;;;;;;4.85;100.00;101345.81;5028829;28;20402;-56